Time;durP1;ratioP1;P1;durP2;ratioP2;P2;SDS_P1;SDS_P2;PMS_P1;PMS_P2;Temp;Humidity;BMP_temperature;BMP_pressure;BME280_temperature;BME280_humidity;BME280_pressure;Samples;Min_cycle;Max_cycle;Signal;HPM_P1;HPM_P2
2023/05/22 00:00:54;;;;;;;5.70;4.37;;;15.50;99.90;;;;;;5131521;27;20510;-45
2023/05/22 00:03:23;;;;;;;5.70;3.90;;;15.60;99.90;;;;;;5131644;27;20441;-45
2023/05/22 00:05:52;;;;;;;4.90;4.23;;;15.40;99.90;;;;;;5131594;27;20447;-45
2023/05/22 00:08:18;;;;;;;6.37;5.20;;;15.30;99.90;;;;;;5131905;27;20550;-45
2023/05/22 00:10:45;;;;;;;6.80;4.47;;;15.30;99.90;;;;;;5131614;27;20487;-45
2023/05/22 00:13:12;;;;;;;6.27;4.43;;;15.30;99.90;;;;;;5131224;27;20483;-45
2023/05/22 00:15:39;;;;;;;5.40;4.60;;;15.20;99.90;;;;;;5131639;27;20848;-44
2023/05/22 00:18:07;;;;;;;6.77;4.60;;;15.30;99.90;;;;;;5135418;27;20437;-45
2023/05/22 00:20:37;;;;;;;6.23;4.40;;;15.00;99.90;;;;;;5135155;27;20473;-45
2023/05/22 00:23:08;;;;;;;5.13;4.23;;;15.10;99.90;;;;;;5135544;27;20502;-45
2023/05/22 00:25:36;;;;;;;4.80;4.30;;;15.20;99.90;;;;;;5135147;27;20431;-45
2023/05/22 00:28:04;;;;;;;5.00;3.77;;;15.30;99.90;;;;;;5134796;27;20530;-45
2023/05/22 00:30:32;;;;;;;8.00;5.37;;;15.30;99.90;;;;;;5135194;27;20827;-46
2023/05/22 00:32:59;;;;;;;6.37;4.53;;;15.40;99.90;;;;;;5135077;27;20927;-45
2023/05/22 00:35:26;;;;;;;6.30;3.77;;;15.40;99.90;;;;;;5134923;27;20443;-45
2023/05/22 00:37:52;;;;;;;5.20;4.00;;;15.30;99.90;;;;;;5135106;27;20522;-45
2023/05/22 00:40:21;;;;;;;7.53;3.90;;;15.40;99.90;;;;;;5135123;27;20991;-45
2023/05/22 00:42:48;;;;;;;6.00;3.80;;;15.40;99.90;;;;;;5134525;27;20473;-45
2023/05/22 00:45:15;;;;;;;5.50;4.30;;;15.30;99.90;;;;;;5134932;27;20527;-45
2023/05/22 00:47:42;;;;;;;8.33;4.93;;;15.30;99.90;;;;;;5134866;27;20518;-45
2023/05/22 00:50:11;;;;;;;4.83;3.90;;;15.30;99.90;;;;;;5134926;27;20537;-45
2023/05/22 00:52:42;;;;;;;5.97;4.37;;;15.00;99.90;;;;;;5134449;27;20942;-45
2023/05/22 00:55:10;;;;;;;7.17;4.80;;;15.10;99.90;;;;;;5134436;27;20519;-46
2023/05/22 00:57:40;;;;;;;6.90;4.60;;;15.20;99.90;;;;;;5134388;27;20524;-45
2023/05/22 01:00:10;;;;;;;5.10;3.90;;;15.00;99.90;;;;;;5134242;27;20463;-45
2023/05/22 01:02:38;;;;;;;7.03;5.23;;;14.80;99.90;;;;;;5134453;27;20957;-45
2023/05/22 01:05:06;;;;;;;6.50;4.33;;;14.90;99.90;;;;;;5134002;27;20449;-45
2023/05/22 01:07:36;;;;;;;6.00;4.03;;;15.00;99.90;;;;;;5134390;27;20442;-45
2023/05/22 01:10:04;;;;;;;5.90;4.60;;;15.10;99.90;;;;;;5134038;27;20952;-45
2023/05/22 01:12:38;;;;;;;6.40;4.93;;;15.00;99.90;;;;;;5134164;27;20550;-45
2023/05/22 01:15:16;;;;;;;6.03;4.50;;;14.60;99.90;;;;;;5134156;27;20445;-45
2023/05/22 01:17:51;;;;;;;6.67;4.63;;;14.60;99.90;;;;;;5134282;27;20442;-46
2023/05/22 01:20:25;;;;;;;6.13;4.73;;;14.70;99.90;;;;;;5134414;27;20928;-45
2023/05/22 01:23:30;;;;;;;5.70;4.13;;;14.80;99.90;;;;;;5134378;27;20478;-45
2023/05/22 01:26:21;;;;;;;4.93;4.40;;;14.70;99.90;;;;;;5133931;27;20538;-45
2023/05/22 01:29:23;;;;;;;6.63;4.43;;;14.80;99.90;;;;;;5133884;27;20455;-45
2023/05/22 01:31:55;;;;;;;5.57;4.00;;;14.70;99.90;;;;;;5132297;27;20494;-45
2023/05/22 01:34:22;;;;;;;5.47;4.30;;;14.70;99.90;;;;;;5132325;27;20477;-46
2023/05/22 01:36:50;;;;;;;6.20;4.03;;;14.80;99.90;;;;;;5132412;27;20472;-45
2023/05/22 01:39:18;;;;;;;4.90;3.90;;;14.80;99.90;;;;;;5132443;27;20443;-45
2023/05/22 01:41:46;;;;;;;6.17;4.30;;;14.90;99.90;;;;;;5131985;27;20538;-45
2023/05/22 01:44:12;;;;;;;5.17;4.30;;;14.90;99.90;;;;;;5132292;27;20525;-45
2023/05/22 01:46:39;;;;;;;5.60;4.33;;;14.90;99.90;;;;;;5133377;27;20522;-45
2023/05/22 01:49:09;;;;;;;5.47;4.23;;;14.70;99.90;;;;;;5133639;27;20448;-46
2023/05/22 01:51:47;;;;;;;4.57;3.90;;;14.40;99.90;;;;;;5133596;27;20464;-45
2023/05/22 01:54:18;;;;;;;5.40;4.20;;;14.40;99.90;;;;;;5133738;27;20518;-45
2023/05/22 01:56:51;;;;;;;6.20;4.40;;;14.50;99.90;;;;;;5132872;27;20442;-47
2023/05/22 01:59:26;;;;;;;6.87;4.70;;;14.50;99.90;;;;;;5133661;27;20865;-45
2023/05/22 02:01:55;;;;;;;6.07;4.60;;;14.60;99.90;;;;;;5133242;27;20474;-45
2023/05/22 02:04:23;;;;;;;6.60;4.70;;;14.60;99.90;;;;;;5133462;27;20470;-45
2023/05/22 02:06:53;;;;;;;8.77;4.63;;;14.30;99.90;;;;;;5133583;27;20521;-45
2023/05/22 02:09:23;;;;;;;7.17;4.23;;;14.40;99.90;;;;;;5133214;27;20441;-45
2023/05/22 02:11:51;;;;;;;5.80;4.50;;;14.50;99.90;;;;;;5133088;27;20540;-45
2023/05/22 02:14:18;;;;;;;5.77;4.40;;;14.50;99.90;;;;;;5133395;27;20544;-45
2023/05/22 02:16:46;;;;;;;5.60;4.37;;;14.60;99.90;;;;;;5132870;27;20481;-45
2023/05/22 02:19:14;;;;;;;5.97;4.50;;;14.40;99.90;;;;;;5132891;27;20887;-45
2023/05/22 02:21:42;;;;;;;7.20;4.33;;;14.30;99.90;;;;;;5132677;27;20466;-45
2023/05/22 02:24:09;;;;;;;5.47;4.50;;;14.00;99.90;;;;;;5132981;27;20446;-45
2023/05/22 02:26:38;;;;;;;6.00;4.80;;;13.90;99.90;;;;;;5132579;27;20474;-46
2023/05/22 02:29:05;;;;;;;7.43;4.77;;;14.00;99.90;;;;;;5133046;27;20544;-45
2023/05/22 02:31:32;;;;;;;7.43;5.07;;;14.00;99.90;;;;;;5132578;27;20541;-45
2023/05/22 02:33:59;;;;;;;7.17;4.87;;;14.00;99.90;;;;;;5132767;27;20489;-45
2023/05/22 02:36:26;;;;;;;5.90;4.17;;;13.90;99.90;;;;;;5132488;27;20446;-45
2023/05/22 02:38:55;;;;;;;6.70;5.10;;;14.00;99.90;;;;;;5132071;27;20468;-46
2023/05/22 02:41:22;;;;;;;7.53;4.40;;;14.20;99.90;;;;;;5132330;27;20480;-45
2023/05/22 02:43:49;;;;;;;6.47;4.90;;;13.80;99.90;;;;;;5132534;27;20461;-45
2023/05/22 02:46:15;;;;;;;7.20;5.23;;;13.70;99.90;;;;;;5132040;27;20454;-45
2023/05/22 02:48:44;;;;;;;6.70;4.70;;;13.80;99.90;;;;;;5132728;27;20526;-45
2023/05/22 02:51:11;;;;;;;5.30;4.10;;;13.80;99.90;;;;;;5132704;27;20552;-45
2023/05/22 02:53:39;;;;;;;8.93;4.77;;;14.00;99.90;;;;;;5132375;27;20469;-44
2023/05/22 02:56:09;;;;;;;6.27;4.00;;;14.00;99.90;;;;;;5132074;27;20438;-45
2023/05/22 02:58:36;;;;;;;6.20;5.07;;;13.90;99.90;;;;;;5131886;27;20446;-45
2023/05/22 03:01:05;;;;;;;5.00;3.80;;;13.90;99.90;;;;;;5131957;27;20564;-45
2023/05/22 03:03:32;;;;;;;7.53;4.77;;;14.00;99.90;;;;;;5132186;27;20861;-46
2023/05/22 03:06:00;;;;;;;6.70;4.93;;;13.90;99.90;;;;;;5132061;27;20487;-45
2023/05/22 03:08:27;;;;;;;5.87;4.60;;;14.00;99.90;;;;;;5132373;27;20445;-45
2023/05/22 03:10:54;;;;;;;6.40;4.70;;;14.00;99.90;;;;;;5132034;27;20885;-45
2023/05/22 03:13:23;;;;;;;5.40;4.40;;;13.80;99.90;;;;;;5132048;27;20485;-45
2023/05/22 03:15:50;;;;;;;6.53;4.30;;;13.60;99.90;;;;;;5132515;27;20442;-45
2023/05/22 03:18:17;;;;;;;6.47;4.80;;;13.70;99.90;;;;;;5131612;27;20499;-45
2023/05/22 03:20:44;;;;;;;6.00;3.83;;;13.70;99.90;;;;;;5132097;27;20523;-45
2023/05/22 03:23:11;;;;;;;5.70;4.50;;;13.80;99.90;;;;;;5131928;27;20466;-46
2023/05/22 03:25:38;;;;;;;7.53;4.73;;;13.90;99.90;;;;;;5132111;27;20525;-45
2023/05/22 03:28:05;;;;;;;6.07;4.50;;;13.60;99.90;;;;;;5132033;27;20529;-46
2023/05/22 03:30:34;;;;;;;8.07;4.90;;;13.70;99.90;;;;;;5132119;27;20458;-45
2023/05/22 03:33:01;;;;;;;5.77;4.90;;;13.60;99.90;;;;;;5131771;27;20435;-45
2023/05/22 03:35:27;;;;;;;6.10;4.60;;;13.70;99.90;;;;;;5131970;27;20530;-45
2023/05/22 03:37:54;;;;;;;5.53;4.20;;;13.60;99.90;;;;;;5131752;27;20462;-45
2023/05/22 03:40:21;;;;;;;6.57;5.00;;;13.80;99.90;;;;;;5132026;27;21150;-45
2023/05/22 03:42:49;;;;;;;5.73;4.47;;;13.90;99.90;;;;;;5131835;27;20566;-45
2023/05/22 03:45:16;;;;;;;6.10;4.30;;;13.90;99.90;;;;;;5131733;27;20438;-46
2023/05/22 03:47:44;;;;;;;5.60;4.17;;;13.80;99.90;;;;;;5131905;27;20469;-45
2023/05/22 03:50:11;;;;;;;5.40;4.00;;;13.90;99.90;;;;;;5132772;27;20465;-45
2023/05/22 03:52:38;;;;;;;5.87;4.73;;;13.90;99.90;;;;;;5135699;27;20687;-46
2023/05/22 03:55:07;;;;;;;6.20;4.60;;;13.90;99.90;;;;;;5135670;27;20532;-45
2023/05/22 03:57:34;;;;;;;6.07;4.40;;;13.90;99.90;;;;;;5135510;27;20460;-45
2023/05/22 04:00:08;;;;;;;7.37;5.10;;;13.90;99.90;;;;;;5135860;27;20940;-45
2023/05/22 04:02:37;;;;;;;6.87;5.00;;;13.90;99.90;;;;;;5135721;27;20477;-45
2023/05/22 04:05:06;;;;;;;5.43;4.70;;;13.80;99.90;;;;;;5135570;27;20449;-45
2023/05/22 04:07:33;;;;;;;5.03;4.53;;;13.80;99.90;;;;;;5135689;27;20955;-45
2023/05/22 04:10:00;;;;;;;5.10;4.37;;;13.80;99.90;;;;;;5135744;27;20513;-45
2023/05/22 04:12:27;;;;;;;6.50;4.13;;;13.80;99.90;;;;;;5134996;27;20533;-46
2023/05/22 04:14:54;;;;;;;5.17;4.40;;;13.70;99.90;;;;;;5135498;27;20516;-45
2023/05/22 04:17:21;;;;;;;5.80;5.13;;;13.70;99.90;;;;;;5135270;27;20989;-45
2023/05/22 04:19:48;;;;;;;6.70;4.00;;;13.60;99.90;;;;;;5135277;27;20473;-45
2023/05/22 04:22:16;;;;;;;6.77;4.47;;;13.70;99.90;;;;;;5135013;27;20512;-45
2023/05/22 04:24:47;;;;;;;6.80;4.80;;;13.70;99.90;;;;;;5135269;27;21023;-45
2023/05/22 04:27:14;;;;;;;5.70;4.50;;;13.80;99.90;;;;;;5135153;27;20928;-45
2023/05/22 04:29:43;;;;;;;4.53;3.90;;;13.90;99.90;;;;;;5135409;27;20442;-45
2023/05/22 04:32:10;;;;;;;4.73;4.27;;;13.90;99.90;;;;;;5134761;27;20465;-44
2023/05/22 04:34:37;;;;;;;5.67;4.70;;;13.90;99.90;;;;;;5135497;27;20546;-45
2023/05/22 04:37:05;;;;;;;6.30;4.30;;;13.90;99.90;;;;;;5135274;27;20477;-45
2023/05/22 04:39:33;;;;;;;5.50;4.70;;;13.90;99.90;;;;;;5135141;27;20932;-45
2023/05/22 04:42:04;;;;;;;6.70;4.87;;;13.80;99.90;;;;;;5134820;27;20524;-45
2023/05/22 04:44:33;;;;;;;6.07;4.20;;;13.80;99.90;;;;;;5134909;27;20443;-45
2023/05/22 04:47:00;;;;;;;5.60;4.63;;;13.80;99.90;;;;;;5134625;27;20446;-46
2023/05/22 04:49:27;;;;;;;6.00;4.70;;;13.70;99.90;;;;;;5134732;27;20467;-46
2023/05/22 04:51:56;;;;;;;5.93;4.60;;;13.70;99.90;;;;;;5121267;27;20515;-45
2023/05/22 04:54:23;;;;;;;5.77;4.60;;;13.70;99.90;;;;;;5114337;28;20468;-45
2023/05/22 04:56:51;;;;;;;6.30;5.10;;;13.80;99.90;;;;;;5113472;28;20530;-44
2023/05/22 04:59:22;;;;;;;7.37;5.53;;;13.80;99.90;;;;;;5114284;28;20439;-45
2023/05/22 05:01:49;;;;;;;5.70;4.00;;;13.90;99.90;;;;;;5121493;27;20550;-45
2023/05/22 05:04:16;;;;;;;5.90;4.80;;;13.70;99.90;;;;;;5123764;27;20442;-45
2023/05/22 05:06:43;;;;;;;5.70;4.60;;;13.60;99.90;;;;;;5125077;27;20430;-45
2023/05/22 05:09:10;;;;;;;6.50;4.77;;;13.60;99.90;;;;;;5121896;27;20964;-45
2023/05/22 05:11:37;;;;;;;7.20;4.87;;;13.70;99.90;;;;;;5113405;27;20462;-45
2023/05/22 05:14:05;;;;;;;6.20;5.20;;;13.80;99.90;;;;;;5120341;27;21026;-45
2023/05/22 05:16:32;;;;;;;7.30;5.00;;;13.80;99.90;;;;;;5123083;27;20479;-46
2023/05/22 05:19:00;;;;;;;6.20;4.80;;;13.60;99.90;;;;;;5115818;27;20474;-45
2023/05/22 05:21:27;;;;;;;7.03;4.63;;;13.70;99.90;;;;;;5113210;28;20463;-46
2023/05/22 05:23:54;;;;;;;6.67;5.03;;;13.80;99.90;;;;;;5119639;27;20436;-45
2023/05/22 05:26:22;;;;;;;7.73;4.83;;;13.90;99.90;;;;;;5123181;27;20442;-45
2023/05/22 05:28:50;;;;;;;7.13;5.47;;;14.00;99.90;;;;;;5123451;27;20439;-45
2023/05/22 05:31:19;;;;;;;6.40;5.10;;;14.00;99.90;;;;;;5127031;27;20897;-44
2023/05/22 05:33:46;;;;;;;8.40;4.27;;;14.00;99.90;;;;;;5133972;27;20807;-45
2023/05/22 05:36:13;;;;;;;5.20;4.40;;;14.00;99.90;;;;;;5133639;27;20525;-44
2023/05/22 05:38:39;;;;;;;5.50;4.77;;;14.00;99.90;;;;;;5133548;27;20524;-45
2023/05/22 05:41:07;;;;;;;5.83;4.70;;;14.00;99.90;;;;;;5133780;27;20513;-44
2023/05/22 05:43:34;;;;;;;11.07;5.73;;;14.00;99.90;;;;;;5133819;27;20505;-44
2023/05/22 05:46:01;;;;;;;5.53;4.93;;;14.00;99.90;;;;;;5133811;27;20865;-45
2023/05/22 05:48:29;;;;;;;11.00;5.30;;;14.00;99.90;;;;;;5133716;27;20525;-45
2023/05/22 05:50:56;;;;;;;6.73;5.50;;;14.10;99.90;;;;;;5133581;27;20551;-43
2023/05/22 05:53:23;;;;;;;7.03;5.37;;;14.10;99.90;;;;;;5116015;27;20514;-45
2023/05/22 05:55:50;;;;;;;7.20;5.20;;;14.10;99.90;;;;;;5112853;28;20530;-45
2023/05/22 05:58:17;;;;;;;6.10;4.73;;;14.10;99.90;;;;;;5112490;28;20892;-45
2023/05/22 06:00:44;;;;;;;6.63;5.30;;;14.10;99.90;;;;;;5112998;28;20718;-45
2023/05/22 06:03:11;;;;;;;7.87;5.87;;;14.10;99.90;;;;;;5112365;28;21056;-45
2023/05/22 06:05:39;;;;;;;9.80;7.80;;;14.10;99.90;;;;;;5112958;27;20882;-45
2023/05/22 06:08:07;;;;;;;7.50;5.43;;;14.10;99.90;;;;;;5112480;28;20472;-45
2023/05/22 06:10:34;;;;;;;8.43;5.70;;;14.20;99.90;;;;;;5112821;28;20465;-45
2023/05/22 06:13:01;;;;;;;7.97;4.63;;;14.40;99.90;;;;;;5112051;28;20446;-45
2023/05/22 06:15:29;;;;;;;8.00;6.20;;;14.60;99.90;;;;;;5111948;28;20929;-45
2023/05/22 06:17:56;;;;;;;9.10;6.37;;;14.90;99.90;;;;;;5112468;28;20450;-45
2023/05/22 06:20:24;;;;;;;6.87;5.70;;;15.20;99.90;;;;;;5112247;27;21027;-45
2023/05/22 06:22:52;;;;;;;7.53;5.00;;;15.40;99.90;;;;;;5112096;28;21013;-45
2023/05/22 06:25:19;;;;;;;5.93;4.57;;;15.40;99.90;;;;;;5112146;28;20480;-45
2023/05/22 06:27:46;;;;;;;6.30;4.90;;;15.50;99.90;;;;;;5112724;28;20523;-45
2023/05/22 06:30:14;;;;;;;16.07;11.70;;;15.60;99.90;;;;;;5112152;28;20451;-45
2023/05/22 06:32:41;;;;;;;6.90;5.03;;;15.70;99.90;;;;;;5112340;28;20475;-45
2023/05/22 06:35:09;;;;;;;6.00;5.27;;;15.70;99.90;;;;;;5112071;28;20439;-44
2023/05/22 06:37:37;;;;;;;7.30;4.77;;;15.70;99.90;;;;;;5112288;28;20530;-45
2023/05/22 06:40:07;;;;;;;6.50;5.07;;;15.80;99.90;;;;;;5112139;28;20436;-45
2023/05/22 06:42:34;;;;;;;8.10;4.70;;;15.80;99.90;;;;;;5111831;28;20558;-45
2023/05/22 06:45:01;;;;;;;6.27;5.00;;;15.70;99.90;;;;;;5111830;28;20443;-44
2023/05/22 06:47:28;;;;;;;7.90;5.20;;;15.80;99.90;;;;;;5112161;28;20505;-45
2023/05/22 06:49:55;;;;;;;6.40;5.70;;;15.80;99.90;;;;;;5111809;28;20507;-45
2023/05/22 06:52:21;;;;;;;5.77;5.00;;;15.90;99.90;;;;;;5111919;28;20468;-46
2023/05/22 06:54:48;;;;;;;5.97;5.33;;;15.90;99.90;;;;;;5111911;28;20470;-44
2023/05/22 06:57:17;;;;;;;6.50;5.60;;;16.00;99.90;;;;;;5111193;28;20857;-46
2023/05/22 06:59:44;;;;;;;5.90;5.30;;;16.00;99.90;;;;;;5111979;28;20526;-46
2023/05/22 07:02:11;;;;;;;6.70;5.13;;;16.10;99.90;;;;;;5111689;28;20505;-46
2023/05/22 07:04:37;;;;;;;6.00;5.40;;;16.20;99.90;;;;;;5112033;28;20526;-44
2023/05/22 07:07:05;;;;;;;7.10;5.07;;;16.30;99.90;;;;;;5111788;28;20495;-46
2023/05/22 07:09:33;;;;;;;6.97;4.87;;;16.40;99.90;;;;;;5111701;28;20528;-46
2023/05/22 07:12:00;;;;;;;8.27;5.00;;;16.50;99.90;;;;;;5111492;28;20873;-45
2023/05/22 07:14:28;;;;;;;5.93;5.10;;;16.60;99.90;;;;;;5111951;28;20523;-46
2023/05/22 07:16:55;;;;;;;6.30;5.30;;;16.60;99.90;;;;;;5111495;28;20481;-45
2023/05/22 07:19:22;;;;;;;6.40;4.93;;;16.70;99.90;;;;;;5111481;28;20479;-46
2023/05/22 07:21:49;;;;;;;7.80;5.13;;;16.70;99.90;;;;;;5110928;28;20544;-46
2023/05/22 07:24:16;;;;;;;7.30;5.00;;;16.70;99.90;;;;;;5111614;28;20477;-46
2023/05/22 07:26:45;;;;;;;5.70;5.20;;;16.80;99.90;;;;;;5111482;28;20529;-46
2023/05/22 07:29:12;;;;;;;10.40;6.00;;;16.80;99.90;;;;;;5111533;28;21245;-46
2023/05/22 07:31:41;;;;;;;6.73;5.53;;;16.90;99.90;;;;;;5110954;28;20464;-46
2023/05/22 07:34:08;;;;;;;6.97;5.47;;;17.00;99.90;;;;;;5111501;28;20845;-46
2023/05/22 07:36:34;;;;;;;6.23;4.97;;;17.10;99.90;;;;;;5111033;28;20532;-46
2023/05/22 07:39:01;;;;;;;10.50;5.70;;;17.30;99.90;;;;;;5111856;28;20472;-46
2023/05/22 07:41:28;;;;;;;5.30;4.57;;;17.40;99.90;;;;;;5111182;28;20557;-46
2023/05/22 07:43:55;;;;;;;8.20;5.00;;;17.50;99.90;;;;;;5113630;28;20579;-45
2023/05/22 07:46:22;;;;;;;6.67;5.07;;;17.60;99.90;;;;;;5132306;27;20509;-45
2023/05/22 07:48:50;;;;;;;5.80;4.50;;;17.80;99.90;;;;;;5131644;27;21248;-46
2023/05/22 07:51:17;;;;;;;7.07;5.30;;;17.80;99.90;;;;;;5131296;27;21172;-45
2023/05/22 07:53:44;;;;;;;6.63;5.83;;;17.90;99.90;;;;;;5131947;27;20439;-45
2023/05/22 07:56:12;;;;;;;7.27;4.73;;;18.00;99.90;;;;;;5131799;27;20540;-46
2023/05/22 07:58:39;;;;;;;4.70;4.20;;;18.00;99.90;;;;;;5131332;27;20878;-45
2023/05/22 08:01:07;;;;;;;5.07;4.50;;;18.00;99.90;;;;;;5131300;27;20548;-45
2023/05/22 08:03:34;;;;;;;7.30;4.50;;;18.10;99.90;;;;;;5131936;27;20722;-46
2023/05/22 08:06:04;;;;;;;7.47;4.57;;;18.10;99.90;;;;;;5131722;27;20525;-46
2023/05/22 08:08:31;;;;;;;5.30;4.20;;;18.20;99.90;;;;;;5131830;27;20502;-45
2023/05/22 08:10:58;;;;;;;5.93;4.40;;;18.20;99.90;;;;;;5131263;27;20846;-46
2023/05/22 08:13:25;;;;;;;8.60;4.80;;;18.30;99.90;;;;;;5131466;27;20534;-45
2023/05/22 08:15:52;;;;;;;5.50;4.60;;;18.40;99.90;;;;;;5131191;27;20958;-45
2023/05/22 08:18:19;;;;;;;6.00;4.47;;;18.50;99.90;;;;;;5131722;27;20476;-45
2023/05/22 08:20:46;;;;;;;5.63;4.60;;;18.50;99.90;;;;;;5131558;27;20467;-45
2023/05/22 08:23:14;;;;;;;5.30;4.37;;;18.70;99.90;;;;;;5131585;27;20986;-45
2023/05/22 08:25:42;;;;;;;5.67;4.40;;;18.70;99.90;;;;;;5131475;27;20483;-45
2023/05/22 08:28:09;;;;;;;6.60;5.10;;;18.80;99.90;;;;;;5131312;27;20827;-45
2023/05/22 08:30:36;;;;;;;5.27;4.33;;;19.00;99.90;;;;;;5131732;27;20459;-45
2023/05/22 08:33:03;;;;;;;5.27;4.30;;;19.00;99.90;;;;;;5131435;27;20489;-45
2023/05/22 08:35:30;;;;;;;5.00;4.27;;;19.10;99.90;;;;;;5131477;27;20539;-46
2023/05/22 08:37:57;;;;;;;4.70;3.83;;;19.30;99.70;;;;;;5133394;27;20979;-45
2023/05/22 08:40:34;;;;;;;4.97;4.47;;;19.30;99.90;;;;;;5134326;27;20488;-45
2023/05/22 08:43:01;;;;;;;5.00;4.37;;;19.40;99.50;;;;;;5134288;27;20558;-46
2023/05/22 08:45:28;;;;;;;6.53;4.43;;;19.50;99.50;;;;;;5134407;27;20444;-46
2023/05/22 08:47:57;;;;;;;5.77;4.43;;;19.70;99.90;;;;;;5134779;27;20464;-46
2023/05/22 08:50:25;;;;;;;4.93;4.40;;;19.70;99.90;;;;;;5134636;27;20466;-45
2023/05/22 08:52:56;;;;;;;5.70;4.27;;;19.70;98.20;;;;;;5134317;27;20596;-46
2023/05/22 08:55:23;;;;;;;6.10;4.17;;;19.90;97.30;;;;;;5134873;27;20422;-45
2023/05/22 08:57:52;;;;;;;4.93;4.43;;;20.00;98.80;;;;;;5134799;27;20528;-46
2023/05/22 09:00:21;;;;;;;5.80;4.97;;;20.00;99.30;;;;;;5134738;27;20570;-46
2023/05/22 09:02:48;;;;;;;5.90;4.50;;;20.10;99.90;;;;;;5134430;27;20570;-45
2023/05/22 09:05:16;;;;;;;5.90;4.40;;;20.20;99.90;;;;;;5134425;27;20462;-45
2023/05/22 09:07:44;;;;;;;6.97;4.77;;;20.30;99.90;;;;;;5134636;27;20445;-46
2023/05/22 09:10:11;;;;;;;6.33;5.00;;;20.50;99.90;;;;;;5134636;27;20469;-46
2023/05/22 09:12:38;;;;;;;7.67;4.63;;;20.60;99.50;;;;;;5134561;27;20560;-46
2023/05/22 09:15:10;;;;;;;6.10;4.70;;;20.60;98.90;;;;;;5134105;27;20477;-47
2023/05/22 09:17:40;;;;;;;6.23;4.70;;;20.70;97.20;;;;;;5133720;27;20442;-46
2023/05/22 09:20:12;;;;;;;6.67;4.60;;;20.70;97.80;;;;;;5132809;27;20472;-46
2023/05/22 09:22:39;;;;;;;4.63;4.13;;;20.90;95.70;;;;;;5132515;27;20441;-45
2023/05/22 09:25:06;;;;;;;4.70;3.47;;;21.00;95.80;;;;;;5133277;27;20528;-46
2023/05/22 09:27:33;;;;;;;4.40;4.00;;;21.00;94.80;;;;;;5133980;27;20449;-46
2023/05/22 09:30:00;;;;;;;10.03;4.87;;;21.00;95.90;;;;;;5133448;27;20473;-45
2023/05/22 09:32:31;;;;;;;5.60;4.07;;;21.00;97.00;;;;;;5134107;27;20519;-46
2023/05/22 09:35:03;;;;;;;5.20;4.30;;;;;;;;;;5134037;27;20521;-46
2023/05/22 09:37:34;;;;;;;7.03;4.47;;;21.20;94.60;;;;;;5133915;27;20946;-46
2023/05/22 09:40:05;;;;;;;5.60;4.37;;;21.30;94.70;;;;;;5133743;27;20505;-45
2023/05/22 09:42:33;;;;;;;5.10;3.77;;;21.30;94.90;;;;;;5132209;27;20441;-46
2023/05/22 09:45:04;;;;;;;4.60;3.70;;;21.30;95.50;;;;;;5132000;27;21018;-44
2023/05/22 09:47:33;;;;;;;5.37;4.20;;;21.30;94.10;;;;;;5132404;27;20526;-46
2023/05/22 09:50:03;;;;;;;4.40;3.53;;;21.40;95.60;;;;;;5132227;27;20446;-46
2023/05/22 09:52:33;;;;;;;6.07;4.53;;;21.50;95.20;;;;;;5132030;27;20997;-45
2023/05/22 09:55:03;;;;;;;6.13;4.33;;;21.60;97.40;;;;;;5131902;27;20517;-42
2023/05/22 09:57:33;;;;;;;6.00;4.57;;;21.70;97.30;;;;;;5132245;27;20442;-46
2023/05/22 10:00:08;;;;;;;7.13;4.43;;;21.90;96.40;;;;;;5133138;27;20445;-46
2023/05/22 10:02:37;;;;;;;4.77;3.80;;;21.90;95.70;;;;;;5133040;27;20445;-47
2023/05/22 10:05:08;;;;;;;5.00;4.00;;;22.00;94.80;;;;;;5132880;27;20560;-47
2023/05/22 10:07:37;;;;;;;6.53;4.30;;;22.10;95.10;;;;;;5133125;27;20446;-47
2023/05/22 10:10:08;;;;;;;4.80;3.80;;;22.10;92.90;;;;;;5133183;27;20446;-46
2023/05/22 10:12:41;;;;;;;6.00;4.60;;;22.20;93.80;;;;;;5133042;27;20827;-46
2023/05/22 10:15:10;;;;;;;5.10;4.03;;;22.30;95.00;;;;;;5132812;27;20958;-46
2023/05/22 10:17:40;;;;;;;5.90;4.67;;;22.40;94.90;;;;;;5133128;27;20438;-45
2023/05/22 10:20:09;;;;;;;4.03;3.63;;;22.50;96.40;;;;;;5133492;27;20517;-45
2023/05/22 10:22:37;;;;;;;7.77;4.03;;;22.60;92.60;;;;;;5132902;27;20940;-45
2023/05/22 10:25:05;;;;;;;5.43;4.70;;;22.80;94.20;;;;;;5132699;27;20557;-44
2023/05/22 10:27:32;;;;;;;5.87;4.20;;;22.80;96.20;;;;;;5132643;27;20691;-46
2023/05/22 10:30:13;;;;;;;5.10;3.43;;;22.90;92.40;;;;;;5120893;27;20888;-45
2023/05/22 10:32:46;;;;;;;7.67;4.33;;;22.90;91.80;;;;;;5121064;27;20470;-46
2023/05/22 10:35:20;;;;;;;5.77;3.80;;;23.00;91.00;;;;;;5121512;27;20526;-45
2023/05/22 10:37:53;;;;;;;5.03;3.63;;;23.10;92.20;;;;;;5122251;27;20442;-45
2023/05/22 10:40:29;;;;;;;5.83;4.07;;;23.20;93.90;;;;;;5121121;27;20883;-45
2023/05/22 10:42:59;;;;;;;5.90;4.80;;;23.20;93.40;;;;;;5120572;27;20446;-45
2023/05/22 10:45:28;;;;;;;8.43;3.80;;;23.20;94.20;;;;;;5121917;27;20522;-45
2023/05/22 10:48:06;;;;;;;4.67;3.87;;;23.10;99.00;;;;;;5123120;27;20438;-45
2023/05/22 10:50:34;;;;;;;8.33;3.10;;;22.90;94.70;;;;;;5120121;27;20511;-45
2023/05/22 10:53:23;;;;;;;5.30;3.43;;;22.80;99.90;;;;;;5111324;28;20447;-45
2023/05/22 10:55:52;;;;;;;4.93;3.20;;;22.70;99.90;;;;;;5132011;27;20525;-45
2023/05/22 10:58:26;;;;;;;4.93;3.90;;;22.70;99.90;;;;;;5132449;27;20744;-46
2023/05/22 11:01:08;;;;;;;5.00;4.13;;;22.70;95.60;;;;;;5131871;27;20457;-45
2023/05/22 11:03:52;;;;;;;6.23;4.80;;;22.60;99.90;;;;;;5132569;27;20475;-45
2023/05/22 11:06:34;;;;;;;9.07;4.90;;;22.40;99.90;;;;;;5132691;27;20799;-46
2023/05/22 11:09:20;;;;;;;4.07;3.40;;;22.30;99.90;;;;;;5132018;27;20461;-46
2023/05/22 11:12:08;;;;;;;4.53;3.83;;;22.50;99.90;;;;;;5131310;27;20561;-46
2023/05/22 11:14:36;;;;;;;5.93;4.30;;;22.50;95.00;;;;;;5131642;27;20993;-46
2023/05/22 11:17:05;;;;;;;4.63;3.77;;;22.60;95.00;;;;;;5131432;27;20982;-45
2023/05/22 11:19:33;;;;;;;5.07;3.53;;;23.20;91.90;;;;;;5132101;27;20475;-46
2023/05/22 11:22:01;;;;;;;5.30;4.00;;;23.20;95.20;;;;;;5131507;27;20496;-45
2023/05/22 11:24:33;;;;;;;4.73;4.00;;;23.00;99.50;;;;;;5132366;27;20481;-45
2023/05/22 11:27:06;;;;;;;5.60;3.60;;;22.90;96.00;;;;;;5132434;27;20532;-45
2023/05/22 11:29:33;;;;;;;4.50;3.83;;;22.80;93.20;;;;;;5132250;27;20525;-45
2023/05/22 11:32:01;;;;;;;5.23;3.77;;;23.30;88.10;;;;;;5131727;27;20647;-45
2023/05/22 11:34:28;;;;;;;4.63;3.40;;;23.60;94.50;;;;;;5132268;27;20470;-45
2023/05/22 11:36:59;;;;;;;4.60;4.07;;;23.50;98.10;;;;;;5131937;27;20466;-45
2023/05/22 11:39:26;;;;;;;6.20;4.10;;;23.40;89.60;;;;;;5132071;27;20527;-45
2023/05/22 11:41:54;;;;;;;4.57;3.83;;;23.80;94.30;;;;;;5131787;27;20544;-46
2023/05/22 11:44:21;;;;;;;4.70;3.60;;;23.80;93.10;;;;;;5131879;27;20478;-46
2023/05/22 11:46:48;;;;;;;5.27;3.30;;;23.60;96.20;;;;;;5131836;27;20481;-45
2023/05/22 11:49:16;;;;;;;4.90;4.13;;;23.60;90.50;;;;;;5131939;27;20484;-45
2023/05/22 11:51:43;;;;;;;4.97;3.50;;;23.60;93.40;;;;;;5131804;27;20469;-45
2023/05/22 11:54:11;;;;;;;5.53;3.63;;;23.50;99.00;;;;;;5131924;27;20476;-45
2023/05/22 11:56:38;;;;;;;4.40;3.33;;;23.60;90.20;;;;;;5131808;27;20441;-46
2023/05/22 11:59:04;;;;;;;4.10;3.50;;;23.60;99.40;;;;;;5131158;27;20476;-45
2023/05/22 12:01:32;;;;;;;4.43;3.43;;;23.50;97.60;;;;;;5131599;27;20460;-45
2023/05/22 12:03:59;;;;;;;4.03;3.23;;;23.40;99.20;;;;;;5131244;27;20476;-45
2023/05/22 12:06:26;;;;;;;4.60;3.37;;;23.40;92.60;;;;;;5131786;27;20928;-45
2023/05/22 12:08:53;;;;;;;5.40;3.93;;;23.60;93.80;;;;;;5131895;27;20470;-45
2023/05/22 12:11:22;;;;;;;4.70;3.70;;;23.80;84.90;;;;;;5131623;27;20494;-45
2023/05/22 12:13:50;;;;;;;4.80;3.60;;;24.00;89.60;;;;;;5135516;27;20445;-45
2023/05/22 12:16:20;;;;;;;4.50;3.43;;;23.90;98.60;;;;;;5135997;27;20495;-45
2023/05/22 12:18:47;;;;;;;4.87;3.90;;;24.00;96.10;;;;;;5135707;27;20481;-46
2023/05/22 12:21:14;;;;;;;5.03;3.27;;;23.90;91.20;;;;;;5135216;27;20489;-46
2023/05/22 12:23:49;;;;;;;4.30;3.27;;;23.80;98.00;;;;;;5134894;27;20481;-46
2023/05/22 12:26:16;;;;;;;4.33;3.67;;;23.60;98.10;;;;;;5135467;27;20473;-45
2023/05/22 12:28:45;;;;;;;4.80;3.77;;;23.70;97.50;;;;;;5135499;27;20935;-45
2023/05/22 12:31:19;;;;;;;4.80;3.60;;;23.70;94.70;;;;;;5135109;27;20493;-46
2023/05/22 12:33:46;;;;;;;5.57;3.60;;;23.80;94.30;;;;;;5135311;27;20461;-46
2023/05/22 12:36:13;;;;;;;5.23;3.60;;;23.60;96.30;;;;;;5134974;27;20488;-45
2023/05/22 12:38:40;;;;;;;5.17;3.70;;;23.50;97.50;;;;;;5135182;27;20520;-45
2023/05/22 12:41:07;;;;;;;5.10;3.90;;;23.60;91.80;;;;;;5134953;27;20493;-45
2023/05/22 12:43:34;;;;;;;7.63;4.30;;;24.00;93.80;;;;;;5135312;27;20473;-45
2023/05/22 12:46:03;;;;;;;5.23;3.83;;;24.40;91.00;;;;;;5134681;27;20552;-45
2023/05/22 12:48:29;;;;;;;4.60;3.90;;;24.40;85.70;;;;;;5134858;27;20461;-45
2023/05/22 12:50:56;;;;;;;7.40;5.00;;;24.50;88.90;;;;;;5134587;27;20506;-45
2023/05/22 12:53:23;;;;;;;5.13;3.80;;;24.60;87.80;;;;;;5135166;27;20533;-45
2023/05/22 12:55:50;;;;;;;5.17;3.93;;;24.60;87.20;;;;;;5134850;27;20503;-45